Time;durP1;ratioP1;P1;durP2;ratioP2;P2;SDS_P1;SDS_P2;PMS_P1;PMS_P2;Temp;Humidity;BMP_temperature;BMP_pressure;BME280_temperature;BME280_humidity;BME280_pressure;Samples;Min_cycle;Max_cycle;Signal;HPM_P1;HPM_P2
2023/08/05 00:00:10;;;;;;;5.75;3.25;;;;;;;;;;5049971;28;20466;-73
2023/08/05 00:02:36;;;;;;;12.20;3.50;;;;;;;;;;5051191;28;20013;-73
2023/08/05 00:05:01;;;;;;;6.47;3.63;;;;;;;;;;5044095;28;20040;-73
2023/08/05 00:07:26;;;;;;;9.70;4.73;;;;;;;;;;5048827;28;20071;-73
2023/08/05 00:09:51;;;;;;;13.43;3.70;;;;;;;;;;5051553;28;20256;-73
2023/08/05 00:12:17;;;;;;;8.87;3.17;;;;;;;;;;5048232;28;20032;-73
2023/08/05 00:14:42;;;;;;;8.10;3.53;;;;;;;;;;5047070;28;20032;-73
2023/08/05 00:17:07;;;;;;;13.40;3.87;;;;;;;;;;5046670;28;20276;-73
2023/08/05 00:19:32;;;;;;;8.43;3.53;;;;;;;;;;5050078;28;20552;-73
2023/08/05 00:21:57;;;;;;;11.20;3.53;;;;;;;;;;5049920;28;20287;-73
2023/08/05 00:24:22;;;;;;;7.40;3.50;;;;;;;;;;5049672;28;20528;-73
2023/08/05 00:26:47;;;;;;;8.87;3.00;;;;;;;;;;5045909;28;20033;-73
2023/08/05 00:29:13;;;;;;;9.90;4.47;;;;;;;;;;5050287;28;20790;-73
2023/08/05 00:31:38;;;;;;;7.83;3.67;;;;;;;;;;5048941;28;20318;-73
2023/08/05 00:34:03;;;;;;;9.43;4.17;;;;;;;;;;5049184;28;20021;-73
2023/08/05 00:36:28;;;;;;;8.87;3.63;;;;;;;;;;5046008;28;20049;-73
2023/08/05 00:38:53;;;;;;;10.77;3.67;;;;;;;;;;5041461;28;20279;-73
2023/08/05 00:41:18;;;;;;;11.33;4.93;;;;;;;;;;5047336;28;20259;-73
2023/08/05 00:43:44;;;;;;;12.43;3.77;;;;;;;;;;5050363;28;20341;-73
2023/08/05 00:46:10;;;;;;;14.63;3.83;;;;;;;;;;5049832;28;20295;-73
2023/08/05 00:48:35;;;;;;;16.83;4.22;;;;;;;;;;5048035;28;20473;-73
2023/08/05 00:51:01;;;;;;;16.10;4.07;;;;;;;;;;5050549;28;20024;-73
2023/08/05 00:53:27;;;;;;;6.20;3.67;;;;;;;;;;5048143;28;20484;-72
2023/08/05 00:55:53;;;;;;;14.68;4.13;;;;;;;;;;5047873;28;20037;-73
2023/08/05 00:58:19;;;;;;;15.85;4.15;;;;;;;;;;5048960;28;20021;-73
2023/08/05 01:00:44;;;;;;;8.88;4.85;;;;;;;;;;5043173;28;20493;-73
2023/08/05 01:03:10;;;;;;;7.83;3.80;;;;;;;;;;5049904;28;20100;-73
2023/08/05 01:05:37;;;;;;;11.23;3.63;;;;;;;;;;5047906;28;20275;-73
2023/08/05 01:08:03;;;;;;;8.20;3.38;;;;;;;;;;5048105;28;20271;-73
2023/08/05 01:10:28;;;;;;;10.27;3.92;;;;;;;;;;5043842;28;20029;-73
2023/08/05 01:12:53;;;;;;;14.55;5.25;;;;;;;;;;5042605;28;20700;-73
2023/08/05 01:15:18;;;;;;;7.20;4.22;;;;;;;;;;5047741;28;20494;-73
2023/08/05 01:17:44;;;;;;;10.95;4.10;;;;;;;;;;5048329;28;20504;-73
2023/08/05 01:20:10;;;;;;;13.65;4.20;;;;;;;;;;5047339;28;20474;-73
2023/08/05 01:22:47;;;;;;;6.45;3.47;;;;;;;;;;5046605;28;20086;-73
2023/08/05 01:25:29;;;;;;;8.43;3.50;;;;;;;;;;5048717;28;20513;-73
2023/08/05 01:27:56;;;;;;;19.55;4.75;;;;;;;;;;5047292;28;20025;-73
2023/08/05 01:30:22;;;;;;;9.88;3.83;;;;;;;;;;5049183;28;20060;-73
2023/08/05 01:32:48;;;;;;;9.45;3.97;;;;;;;;;;5049610;28;20116;-73
2023/08/05 01:35:13;;;;;;;9.32;3.75;;;;;;;;;;5048016;28;20445;-73
2023/08/05 01:37:38;;;;;;;7.55;3.40;;;;;;;;;;5048277;28;20029;-73
2023/08/05 01:40:05;;;;;;;10.20;4.55;;;;;;;;;;5052627;28;20013;-73
2023/08/05 01:42:30;;;;;;;11.82;3.88;;;;;;;;;;5055653;28;20025;-73
2023/08/05 01:44:55;;;;;;;4.93;3.40;;;;;;;;;;5053915;28;20071;-73
2023/08/05 01:47:20;;;;;;;13.75;4.60;;;;;;;;;;5053753;28;20278;-73
2023/08/05 01:49:45;;;;;;;9.90;4.63;;;;;;;;;;5054415;28;20017;-73
2023/08/05 01:52:10;;;;;;;7.00;3.87;;;;;;;;;;5055075;28;20290;-73
2023/08/05 01:54:36;;;;;;;15.27;3.87;;;;;;;;;;5056162;28;20335;-73
2023/08/05 01:57:01;;;;;;;8.85;4.18;;;;;;;;;;5054274;28;20264;-73
2023/08/05 01:59:26;;;;;;;10.50;3.90;;;;;;;;;;5054215;28;20046;-73
2023/08/05 02:01:51;;;;;;;9.52;3.78;;;;;;;;;;5054059;28;20275;-73
2023/08/05 02:04:17;;;;;;;17.27;3.80;;;;;;;;;;5053120;28;20036;-73
2023/08/05 02:06:42;;;;;;;5.60;3.38;;;;;;;;;;5054367;28;20855;-73
2023/08/05 02:09:08;;;;;;;8.15;4.15;;;;;;;;;;5051883;28;20021;-73
2023/08/05 02:11:33;;;;;;;8.65;3.75;;;;;;;;;;5055270;28;20039;-73
2023/08/05 02:13:58;;;;;;;10.40;4.18;;;;;;;;;;5054844;28;20386;-73
2023/08/05 02:16:23;;;;;;;9.88;4.57;;;;;;;;;;5053393;28;20025;-73
2023/08/05 02:18:49;;;;;;;14.33;4.60;;;;;;;;;;5053165;28;20690;-73
2023/08/05 02:21:14;;;;;;;7.40;4.57;;;;;;;;;;5055438;28;20317;-73
2023/08/05 02:23:39;;;;;;;17.65;4.82;;;;;;;;;;5056315;28;20016;-73
2023/08/05 02:26:05;;;;;;;11.17;4.20;;;;;;;;;;5055563;28;20021;-73
2023/08/05 02:28:30;;;;;;;10.60;3.90;;;;;;;;;;5051939;28;20032;-73
2023/08/05 02:30:55;;;;;;;12.60;4.73;;;;;;;;;;5054460;28;20047;-73
2023/08/05 02:33:20;;;;;;;7.37;4.17;;;;;;;;;;5055404;28;20029;-73
2023/08/05 02:35:46;;;;;;;9.27;4.90;;;;;;;;;;5055228;28;20394;-73
2023/08/05 02:38:12;;;;;;;11.18;4.05;;;;;;;;;;5051885;28;20362;-73
2023/08/05 02:40:37;;;;;;;7.38;3.95;;;;;;;;;;5054553;28;20481;-73
2023/08/05 02:43:02;;;;;;;11.35;4.20;;;;;;;;;;5053894;28;20036;-73
2023/08/05 02:45:28;;;;;;;11.03;3.77;;;;;;;;;;5055425;28;20054;-73
2023/08/05 02:47:53;;;;;;;9.35;3.95;;;;;;;;;;5054852;28;20271;-73
2023/08/05 02:50:18;;;;;;;13.95;4.30;;;;;;;;;;5051421;28;20033;-73
2023/08/05 02:52:43;;;;;;;13.07;4.07;;;;;;;;;;5051700;28;20029;-73
2023/08/05 02:55:08;;;;;;;10.13;4.43;;;;;;;;;;5048457;28;20322;-73
2023/08/05 02:57:33;;;;;;;9.10;4.32;;;;;;;;;;5048817;28;20021;-73
2023/08/05 02:59:59;;;;;;;10.83;3.87;;;;;;;;;;5052695;28;20031;-73
2023/08/05 03:02:24;;;;;;;8.88;4.90;;;;;;;;;;5049973;28;20624;-73
2023/08/05 03:04:49;;;;;;;13.43;4.43;;;;;;;;;;5052470;28;20396;-73
2023/08/05 03:07:14;;;;;;;11.03;4.60;;;;;;;;;;5049226;28;20338;-73
2023/08/05 03:09:39;;;;;;;13.07;4.90;;;;;;;;;;5049303;28;20268;-73
2023/08/05 03:12:07;;;;;;;14.90;5.50;;;;;;;;;;5050584;28;20033;-73
2023/08/05 03:14:32;;;;;;;12.77;5.13;;;;;;;;;;5050536;28;20259;-73
2023/08/05 03:16:57;;;;;;;9.13;4.32;;;;;;;;;;5048626;28;20043;-73
2023/08/05 03:19:22;;;;;;;15.33;5.37;;;;;;;;;;5051310;28;20492;-73
2023/08/05 03:21:47;;;;;;;10.00;4.67;;;;;;;;;;5049794;28;20291;-72
2023/08/05 03:24:13;;;;;;;19.50;5.40;;;;;;;;;;5045822;28;20263;-73
2023/08/05 03:26:38;;;;;;;12.67;5.03;;;;;;;;;;5049761;28;20025;-73
2023/08/05 03:29:03;;;;;;;11.53;6.23;;;;;;;;;;5050622;28;20259;-73
2023/08/05 03:31:29;;;;;;;10.43;5.30;;;;;;;;;;5049825;28;20275;-73
2023/08/05 03:33:54;;;;;;;11.30;5.63;;;;;;;;;;5051069;28;20853;-73
2023/08/05 03:36:19;;;;;;;22.00;5.83;;;;;;;;;;5050625;28;20017;-73
2023/08/05 03:38:45;;;;;;;11.87;5.80;;;;;;;;;;5047052;28;20278;-73
2023/08/05 03:41:10;;;;;;;18.80;5.93;;;;;;;;;;5051724;28;20299;-73
2023/08/05 03:43:35;;;;;;;19.17;5.50;;;;;;;;;;5052032;28;20251;-73
2023/08/05 03:46:00;;;;;;;14.90;4.87;;;;;;;;;;5050334;28;20949;-73
2023/08/05 03:48:25;;;;;;;10.13;4.70;;;;;;;;;;5049273;28;20276;-73
2023/08/05 03:50:50;;;;;;;14.93;5.80;;;;;;;;;;5050127;28;20287;-73
2023/08/05 03:53:16;;;;;;;11.25;5.43;;;;;;;;;;5050518;28;20021;-73
2023/08/05 03:55:41;;;;;;;11.38;5.68;;;;;;;;;;5050267;28;20009;-73
2023/08/05 03:58:07;;;;;;;16.05;6.57;;;;;;;;;;5050034;28;20023;-73
2023/08/05 04:00:32;;;;;;;14.35;6.57;;;;;;;;;;5045675;28;20021;-73
2023/08/05 04:02:57;;;;;;;11.18;6.82;;;;;;;;;;5050647;28;20032;-73
2023/08/05 04:05:23;;;;;;;15.70;5.95;;;;;;;;;;5050522;28;20016;-73
2023/08/05 04:07:48;;;;;;;18.30;8.07;;;;;;;;;;5048442;28;20033;-73
2023/08/05 04:10:13;;;;;;;19.87;5.70;;;;;;;;;;5050031;28;20025;-73
2023/08/05 04:12:38;;;;;;;12.07;6.30;;;;;;;;;;5046375;28;20283;-73
2023/08/05 04:15:06;;;;;;;10.93;5.70;;;;;;;;;;5046783;28;21038;-73
2023/08/05 04:17:31;;;;;;;14.07;5.97;;;;;;;;;;5043906;28;20025;-72
2023/08/05 04:19:56;;;;;;;18.73;5.90;;;;;;;;;;5046744;28;20032;-72
2023/08/05 04:22:24;;;;;;;20.75;5.80;;;;;;;;;;5048982;28;20021;-72
2023/08/05 04:24:49;;;;;;;22.27;6.63;;;;;;;;;;5047605;28;20021;-72
2023/08/05 04:27:14;;;;;;;17.42;7.03;;;;;;;;;;5049830;28;20377;-72
2023/08/05 04:29:40;;;;;;;14.85;6.80;;;;;;;;;;5045131;28;20021;-72
2023/08/05 04:32:05;;;;;;;19.02;7.78;;;;;;;;;;5049334;28;20565;-72
2023/08/05 04:34:35;;;;;;;19.15;7.93;;;;;;;;;;5049421;28;20462;-72
2023/08/05 04:37:14;;;;;;;16.45;8.00;;;;;;;;;;5044127;28;20017;-72
2023/08/05 04:39:39;;;;;;;22.30;8.18;;;;;;;;;;5044212;28;20043;-72
2023/08/05 04:42:04;;;;;;;19.97;7.87;;;;;;;;;;5049100;28;20513;-72
2023/08/05 04:44:29;;;;;;;19.60;7.75;;;;;;;;;;5048498;28;20025;-72
2023/08/05 04:46:55;;;;;;;19.93;8.47;;;;;;;;;;5049678;28;20025;-72
2023/08/05 04:49:20;;;;;;;16.93;8.07;;;;;;;;;;5047923;28;20523;-72
2023/08/05 04:51:45;;;;;;;19.93;8.83;;;;;;;;;;5048420;28;20295;-72
2023/08/05 04:54:10;;;;;;;23.02;9.07;;;;;;;;;;5048773;28;20330;-72
2023/08/05 04:56:35;;;;;;;21.20;8.80;;;;;;;;;;5049694;28;20475;-72
2023/08/05 04:59:01;;;;;;;21.17;8.93;;;;;;;;;;5049080;28;20286;-72
2023/08/05 05:01:26;;;;;;;20.83;9.33;;;;;;;;;;5047587;28;20021;-72
2023/08/05 05:03:51;;;;;;;26.85;9.45;;;;;;;;;;5048846;28;20869;-72
2023/08/05 05:06:16;;;;;;;23.48;9.57;;;;;;;;;;5047636;28;20044;-72
2023/08/05 05:08:41;;;;;;;19.40;8.73;;;;;;;;;;5046584;28;20096;-72
2023/08/05 05:11:10;;;;;;;20.10;9.85;;;;;;;;;;5050565;28;20266;-72
2023/08/05 05:13:36;;;;;;;32.78;10.80;;;;;;;;;;5049253;28;20020;-72
2023/08/05 05:16:02;;;;;;;29.17;11.00;;;;;;;;;;5044476;28;20132;-72
2023/08/05 05:18:27;;;;;;;30.40;10.48;;;;;;;;;;5047563;28;20023;-72
2023/08/05 05:20:54;;;;;;;22.73;10.60;;;;;;;;;;5049304;28;20469;-72
2023/08/05 05:23:19;;;;;;;21.40;9.77;;;;;;;;;;5048349;28;20285;-72
2023/08/05 05:25:45;;;;;;;24.63;10.27;;;;;;;;;;5044606;28;20036;-72
2023/08/05 05:28:10;;;;;;;22.17;9.00;;;;;;;;;;5046457;28;20387;-72
2023/08/05 05:30:35;;;;;;;22.77;9.88;;;;;;;;;;5048412;28;20059;-72
2023/08/05 05:33:01;;;;;;;18.40;9.90;;;;;;;;;;5048861;28;20108;-72
2023/08/05 05:35:26;;;;;;;21.13;9.25;;;;;;;;;;5029318;28;20099;-72
2023/08/05 05:37:51;;;;;;;23.95;9.48;;;;;;;;;;5048298;28;20475;-72
2023/08/05 05:40:16;;;;;;;20.23;10.53;;;;;;;;;;5048694;28;20056;-72
2023/08/05 05:42:41;;;;;;;21.90;10.40;;;;;;;;;;5049917;28;20267;-72
2023/08/05 05:45:07;;;;;;;29.77;9.93;;;;;;;;;;5031984;28;20028;-72
2023/08/05 05:47:32;;;;;;;21.23;9.57;;;;;;;;;;5046957;28;20288;-72
2023/08/05 05:49:57;;;;;;;22.10;9.23;;;;;;;;;;5048127;28;20086;-72
2023/08/05 05:52:22;;;;;;;23.07;9.53;;;;;;;;;;5049513;28;20469;-72
2023/08/05 05:54:47;;;;;;;24.00;9.93;;;;;;;;;;5051392;28;20316;-72
2023/08/05 05:57:12;;;;;;;27.30;10.53;;;;;;;;;;5046056;28;20290;-72
2023/08/05 05:59:39;;;;;;;26.33;10.37;;;;;;;;;;5047547;28;20740;-72
2023/08/05 06:02:05;;;;;;;26.90;11.07;;;;;;;;;;5045096;28;20299;-72
2023/08/05 06:04:30;;;;;;;17.75;9.00;;;;;;;;;;5048643;28;20106;-72
2023/08/05 06:06:55;;;;;;;24.27;11.07;;;;;;;;;;5045639;28;20032;-72
2023/08/05 06:09:20;;;;;;;23.58;9.98;;;;;;;;;;5048823;28;20273;-72
2023/08/05 06:11:46;;;;;;;22.77;9.98;;;;;;;;;;5046787;28;20443;-72
2023/08/05 06:14:11;;;;;;;6.93;4.57;;;;;;;;;;5043794;28;20049;-72
2023/08/05 06:16:36;;;;;;;24.80;10.97;;;;;;;;;;5044895;28;20021;-72
2023/08/05 06:19:02;;;;;;;21.48;10.63;;;;;;;;;;5041357;28;20370;-72
2023/08/05 06:21:27;;;;;;;22.02;6.72;;;;;;;;;;5028327;28;20036;-72
2023/08/05 06:23:52;;;;;;;9.73;4.07;;;;;;;;;;5047255;28;20025;-72
2023/08/05 06:26:17;;;;;;;23.90;11.07;;;;;;;;;;5049169;28;20303;-72
2023/08/05 06:28:42;;;;;;;13.87;7.60;;;;;;;;;;5049536;28;20025;-72
2023/08/05 06:31:08;;;;;;;23.90;12.18;;;;;;;;;;5048884;28;20310;-72
2023/08/05 06:33:33;;;;;;;20.13;8.37;;;;;;;;;;5051783;28;20017;-72
2023/08/05 06:35:58;;;;;;;19.30;8.60;;;;;;;;;;5045609;28;20303;-72
2023/08/05 06:38:24;;;;;;;32.67;14.50;;;;;;;;;;5048550;28;20272;-72
2023/08/05 06:40:51;;;;;;;30.45;14.00;;;;;;;;;;5052681;28;20703;-72
2023/08/05 06:43:16;;;;;;;34.03;13.35;;;;;;;;;;5049481;28;20466;-72
2023/08/05 06:45:42;;;;;;;29.10;12.23;;;;;;;;;;5047986;28;20079;-72
2023/08/05 06:48:07;;;;;;;32.10;13.07;;;;;;;;;;5050249;28;20025;-72
2023/08/05 06:50:32;;;;;;;25.38;12.23;;;;;;;;;;5051982;28;20029;-72
2023/08/05 06:52:58;;;;;;;35.70;13.52;;;;;;;;;;5049332;28;20075;-72
2023/08/05 06:55:23;;;;;;;27.10;10.30;;;;;;;;;;5050022;28;20043;-72
2023/08/05 06:57:48;;;;;;;28.37;10.93;;;;;;;;;;5046738;28;20029;-72
2023/08/05 07:00:13;;;;;;;23.67;9.57;;;;;;;;;;5048917;28;20025;-72
2023/08/05 07:02:39;;;;;;;29.67;10.38;;;;;;;;;;5051949;28;20036;-72
2023/08/05 07:05:04;;;;;;;17.83;9.77;;;;;;;;;;5050825;28;20032;-72
2023/08/05 07:07:30;;;;;;;23.77;9.48;;;;;;;;;;5048829;28;20104;-72
2023/08/05 07:10:01;;;;;;;23.80;8.82;;;;;;;;;;5047760;28;20021;-72
2023/08/05 07:12:26;;;;;;;16.85;7.65;;;;;;;;;;5051063;28;20025;-72
2023/08/05 07:14:51;;;;;;;20.40;7.67;;;;;;;;;;5050005;28;20036;-73
2023/08/05 07:17:16;;;;;;;14.87;5.80;;;;;;;;;;5044252;28;20721;-72
2023/08/05 07:19:41;;;;;;;14.70;6.90;;;;;;;;;;5048668;28;20005;-72
2023/08/05 07:22:07;;;;;;;19.52;7.05;;;;;;;;;;5047828;28;20426;-72
2023/08/05 07:24:32;;;;;;;15.60;6.47;;;;;;;;;;5048857;28;21556;-72
2023/08/05 07:26:57;;;;;;;11.87;5.63;;;;;;;;;;5046964;28;20025;-72
2023/08/05 07:29:22;;;;;;;14.57;6.33;;;;;;;;;;5051636;28;20286;-72
2023/08/05 07:31:47;;;;;;;14.70;4.75;;;;;;;;;;5049747;28;20291;-72
2023/08/05 07:34:14;;;;;;;13.77;6.53;;;;;;;;;;5051305;28;20009;-72
2023/08/05 07:36:41;;;;;;;15.07;6.05;;;;;;;;;;5050281;28;20271;-72
2023/08/05 07:39:08;;;;;;;17.40;6.72;;;;;;;;;;5047430;28;20379;-73
2023/08/05 07:41:33;;;;;;;12.23;5.07;;;;;;;;;;5051386;28;20663;-73
2023/08/05 07:44:00;;;;;;;13.32;6.53;;;;;;;;;;5052436;28;20039;-72
2023/08/05 07:46:26;;;;;;;8.95;4.88;;;;;;;;;;5048938;28;20017;-72
2023/08/05 07:48:52;;;;;;;11.20;5.90;;;;;;;;;;5029676;28;20109;-72
2023/08/05 07:51:18;;;;;;;14.88;6.75;;;;;;;;;;5049896;28;20299;-72
2023/08/05 07:53:43;;;;;;;20.05;6.75;;;;;;;;;;5050833;28;20021;-72
2023/08/05 07:56:12;;;;;;;14.23;6.78;;;;;;;;;;5047324;28;20048;-72
2023/08/05 07:58:40;;;;;;;17.08;7.70;;;;;;;;;;5044237;28;20040;-72
2023/08/05 08:01:06;;;;;;;13.70;8.27;;;;;;;;;;5047121;28;20021;-72
2023/08/05 08:03:31;;;;;;;13.80;6.18;;;;;;;;;;5049608;28;20063;-73
2023/08/05 08:05:57;;;;;;;14.63;7.13;;;;;;;;;;5045882;28;20064;-73
2023/08/05 08:08:23;;;;;;;16.13;7.03;;;;;;;;;;5045725;28;20044;-72
2023/08/05 08:10:48;;;;;;;14.65;6.40;;;;;;;;;;5047847;28;20064;-73
2023/08/05 08:13:13;;;;;;;9.50;3.92;;;;;;;;;;5047047;28;20497;-72
2023/08/05 08:15:38;;;;;;;11.60;7.00;;;;;;;;;;5046515;28;20106;-72
2023/08/05 08:18:03;;;;;;;15.23;6.77;;;;;;;;;;5046345;28;20033;-72
2023/08/05 08:20:29;;;;;;;12.85;4.68;;;;;;;;;;5044568;28;20017;-72
2023/08/05 08:22:54;;;;;;;11.43;5.00;;;;;;;;;;5047706;28;20060;-72
2023/08/05 08:25:19;;;;;;;15.43;6.30;;;;;;;;;;5046356;28;20428;-72
2023/08/05 08:27:44;;;;;;;12.07;5.72;;;;;;;;;;5044610;28;20069;-72
2023/08/05 08:30:11;;;;;;;11.00;6.17;;;;;;;;;;5046155;28;20025;-72
2023/08/05 08:32:36;;;;;;;11.93;5.63;;;;;;;;;;5042714;28;20290;-72
2023/08/05 08:35:01;;;;;;;10.73;6.10;;;;;;;;;;5043155;28;20163;-72
2023/08/05 08:37:26;;;;;;;10.00;4.93;;;;;;;;;;5043342;28;20290;-72
2023/08/05 08:39:52;;;;;;;13.80;5.13;;;;;;;;;;5042429;28;20033;-72
2023/08/05 08:42:19;;;;;;;8.68;5.20;;;;;;;;;;5043767;28;20055;-72
2023/08/05 08:44:45;;;;;;;8.88;5.32;;;;;;;;;;5047065;28;20025;-72
2023/08/05 08:47:10;;;;;;;10.35;5.80;;;;;;;;;;5045571;28;20443;-72
2023/08/05 08:49:36;;;;;;;9.23;4.82;;;;;;;;;;5048288;28;20074;-72
2023/08/05 08:52:02;;;;;;;9.90;5.10;;;;;;;;;;5049829;28;20064;-72
2023/08/05 08:54:28;;;;;;;8.60;4.63;;;;;;;;;;5047771;28;20041;-72
2023/08/05 08:56:53;;;;;;;12.20;4.90;;;;;;;;;;5045041;28;20386;-72
2023/08/05 08:59:18;;;;;;;9.03;4.30;;;;;;;;;;5046094;28;20017;-72
2023/08/05 09:01:45;;;;;;;5.87;2.47;;;;;;;;;;5049431;28;20013;-72
2023/08/05 09:04:10;;;;;;;9.50;3.75;;;;;;;;;;5045447;28;20278;-72
2023/08/05 09:06:37;;;;;;;9.90;4.50;;;;;;;;;;5039791;28;20022;-72
2023/08/05 09:09:02;;;;;;;8.13;4.75;;;;;;;;;;5044978;28;20342;-72
2023/08/05 09:11:27;;;;;;;8.77;4.50;;;;;;;;;;5040622;28;20166;-72
2023/08/05 09:13:53;;;;;;;9.70;4.90;;;;;;;;;;5045219;28;20394;-72
2023/08/05 09:16:18;;;;;;;7.30;4.80;;;;;;;;;;5049226;28;20110;-72
2023/08/05 09:18:44;;;;;;;11.90;4.47;;;;;;;;;;5040822;28;20029;-72
2023/08/05 09:21:10;;;;;;;6.00;3.95;;;;;;;;;;5042934;28;20271;-72
2023/08/05 09:23:43;;;;;;;9.88;4.60;;;;;;;;;;5047650;28;20043;-72
2023/08/05 09:26:10;;;;;;;5.50;3.40;;;;;;;;;;5046249;28;20124;-72
2023/08/05 09:28:36;;;;;;;6.40;4.93;;;;;;;;;;5045804;28;20365;-72
2023/08/05 09:31:31;;;;;;;7.27;4.00;;;;;;;;;;5030099;28;20108;-72
2023/08/05 09:33:56;;;;;;;10.32;4.63;;;;;;;;;;5036375;28;20041;-73
2023/08/05 09:36:27;;;;;;;7.57;3.07;;;;;;;;;;5048491;28;20445;-72
2023/08/05 09:39:11;;;;;;;10.63;3.63;;;;;;;;;;5048011;28;20056;-72
2023/08/05 09:41:36;;;;;;;5.90;3.30;;;;;;;;;;5048991;28;20025;-72
2023/08/05 09:44:04;;;;;;;2.93;2.10;;;;;;;;;;5049286;28;20032;-73
2023/08/05 09:46:36;;;;;;;4.53;3.03;;;;;;;;;;5050001;28;20263;-73
2023/08/05 09:49:01;;;;;;;3.55;2.60;;;;;;;;;;5047461;28;20485;-72
2023/08/05 09:51:27;;;;;;;4.68;2.03;;;;;;;;;;5049010;28;20121;-73
2023/08/05 09:53:54;;;;;;;7.80;2.08;;;;;;;;;;5050046;28;20025;-72
2023/08/05 09:56:20;;;;;;;6.07;2.60;;;;;;;;;;5047185;28;20064;-72
2023/08/05 09:58:46;;;;;;;4.72;2.88;;;;;;;;;;5041391;28;20029;-72
2023/08/05 10:01:12;;;;;;;5.07;3.00;;;;;;;;;;5053979;28;20013;-72
2023/08/05 10:03:38;;;;;;;6.32;3.33;;;;;;;;;;5036040;28;20033;-72
2023/08/05 10:06:07;;;;;;;5.72;3.20;;;;;;;;;;5052986;28;20377;-72
2023/08/05 10:08:35;;;;;;;5.23;3.10;;;;;;;;;;5053429;28;20021;-72
2023/08/05 10:11:00;;;;;;;2.58;2.25;;;;;;;;;;5052086;28;20104;-72
2023/08/05 10:13:26;;;;;;;6.40;2.03;;;;;;;;;;5049302;28;20124;-72
2023/08/05 10:15:52;;;;;;;4.80;2.25;;;;;;;;;;5052248;28;20048;-72
2023/08/05 10:18:17;;;;;;;7.63;2.60;;;;;;;;;;5053155;28;20389;-72
2023/08/05 10:20:43;;;;;;;3.20;2.65;;;;;;;;;;5053792;28;20099;-72
2023/08/05 10:23:09;;;;;;;11.10;2.75;;;;;;;;;;5053037;28;20024;-72
2023/08/05 10:25:42;;;;;;;3.97;2.30;;;;;;;;;;5052459;28;20473;-72
2023/08/05 10:28:08;;;;;;;3.65;2.30;;;;;;;;;;5049151;28;20055;-72
2023/08/05 10:30:43;;;;;;;5.78;2.08;;;;;;;;;;5053289;28;20448;-72
2023/08/05 10:33:08;;;;;;;6.90;2.05;;;;;;;;;;5053507;28;20404;-72
2023/08/05 10:35:39;;;;;;;6.38;2.47;;;;;;;;;;5053414;28;20029;-72
2023/08/05 10:38:07;;;;;;;6.70;2.58;;;;;;;;;;5053427;28;20356;-73
2023/08/05 10:40:51;;;;;;;5.50;2.58;;;;;;;;;;5051629;28;20070;-73
2023/08/05 10:43:31;;;;;;;8.48;2.30;;;;;;;;;;5053049;28;20032;-73
2023/08/05 10:45:56;;;;;;;;;;;;;;;;;;5047041;28;20031;-73
2023/08/05 10:48:27;;;;;;;5.13;2.13;;;;;;;;;;5052999;28;19905;-72
2023/08/05 10:50:52;;;;;;;1.55;1.02;;;;;;;;;;5052491;28;20021;-72
2023/08/05 10:53:17;;;;;;;5.37;2.87;;;;;;;;;;5051824;28;20068;-72
2023/08/05 10:55:46;;;;;;;5.60;2.67;;;;;;;;;;5052523;28;20267;-73
2023/08/05 10:58:11;;;;;;;5.22;2.80;;;;;;;;;;5052881;28;20046;-72
2023/08/05 11:00:39;;;;;;;5.83;3.17;;;;;;;;;;5051960;28;20048;-73
2023/08/05 11:03:24;;;;;;;5.47;3.05;;;;;;;;;;5052968;28;20728;-72
2023/08/05 11:05:50;;;;;;;4.95;3.30;;;;;;;;;;5045413;28;20028;-72
2023/08/05 11:08:18;;;;;;;7.90;2.97;;;;;;;;;;5051742;28;20036;-73
2023/08/05 11:10:44;;;;;;;5.72;2.70;;;;;;;;;;5051611;28;20032;-72
2023/08/05 11:13:10;;;;;;;5.10;2.92;;;;;;;;;;5052072;28;20025;-72
2023/08/05 11:15:39;;;;;;;6.00;3.53;;;;;;;;;;5051459;28;20495;-73
2023/08/05 11:18:06;;;;;;;6.75;3.22;;;;;;;;;;5052197;28;20028;-73
2023/08/05 11:20:32;;;;;;;4.25;2.90;;;;;;;;;;5052210;28;20021;-73
2023/08/05 11:22:57;;;;;;;4.90;3.13;;;;;;;;;;5051438;28;20025;-73
2023/08/05 11:25:22;;;;;;;6.37;2.90;;;;;;;;;;5049152;28;20021;-73
2023/08/05 11:27:52;;;;;;;5.90;3.25;;;;;;;;;;5051893;28;20248;-73
2023/08/05 11:30:17;;;;;;;9.23;3.13;;;;;;;;;;5052500;28;20172;-72
2023/08/05 11:32:50;;;;;;;5.63;3.33;;;;;;;;;;5052391;28;20525;-73
2023/08/05 11:35:15;;;;;;;6.43;3.67;;;;;;;;;;5052646;28;20021;-73
2023/08/05 11:37:40;;;;;;;4.30;3.00;;;;;;;;;;5051114;28;20032;-73
2023/08/05 11:40:06;;;;;;;7.90;4.20;;;;;;;;;;5048205;28;20071;-73
2023/08/05 11:42:31;;;;;;;5.70;2.83;;;;;;;;;;5046573;28;20017;-73
2023/08/05 11:44:56;;;;;;;2.13;1.02;;;;;;;;;;5049562;28;20025;-73
2023/08/05 11:47:21;;;;;;;6.78;2.28;;;;;;;;;;5050819;28;20035;-72
2023/08/05 11:49:54;;;;;;;5.73;2.20;;;;;;;;;;5048708;28;20021;-72
2023/08/05 11:52:19;;;;;;;7.05;2.20;;;;;;;;;;5050331;28;20333;-72
2023/08/05 11:54:54;;;;;;;6.15;1.55;;;;;;;;;;5049157;28;20029;-72
2023/08/05 11:57:19;;;;;;;3.67;2.22;;;;;;;;;;5051392;28;20017;-72
2023/08/05 11:59:45;;;;;;;3.90;2.47;;;;;;;;;;5048815;28;20083;-73
2023/08/05 12:02:12;;;;;;;5.38;2.60;;;;;;;;;;5050149;28;20424;-73
2023/08/05 12:04:41;;;;;;;6.72;2.30;;;;;;;;;;5051421;28;20051;-73
2023/08/05 12:07:09;;;;;;;4.32;2.78;;;;;;;;;;5050584;28;20021;-73
2023/08/05 12:09:34;;;;;;;4.50;2.83;;;;;;;;;;5048583;28;20486;-73
2023/08/05 12:11:59;;;;;;;6.73;3.07;;;;;;;;;;5049949;28;20063;-73
2023/08/05 12:14:24;;;;;;;2.73;1.83;;;;;;;;;;5051473;28;20021;-73
2023/08/05 12:16:52;;;;;;;6.90;3.20;;;;;;;;;;5050368;28;20076;-73
2023/08/05 12:19:17;;;;;;;3.97;2.60;;;;;;;;;;5051436;28;20028;-73
2023/08/05 12:21:43;;;;;;;4.63;2.67;;;;;;;;;;5048367;28;20017;-72
2023/08/05 12:24:08;;;;;;;6.83;3.00;;;;;;;;;;5049483;28;20036;-73
2023/08/05 12:26:33;;;;;;;8.55;3.13;;;;;;;;;;5049962;28;20075;-73
2023/08/05 12:28:59;;;;;;;6.80;3.47;;;;;;;;;;5051076;28;20032;-73
2023/08/05 12:31:24;;;;;;;2.10;1.33;;;;;;;;;;5050260;28;20100;-72
2023/08/05 12:33:49;;;;;;;4.77;1.60;;;;;;;;;;5049975;28;20474;-73
2023/08/05 12:36:14;;;;;;;5.47;3.37;;;;;;;;;;5047879;28;20027;-73
2023/08/05 12:38:39;;;;;;;7.43;3.67;;;;;;;;;;5049432;28;20405;-73
2023/08/05 12:41:04;;;;;;;7.03;4.30;;;;;;;;;;5032689;28;20025;-73
2023/08/05 12:43:30;;;;;;;10.83;3.57;;;;;;;;;;5051120;28;20381;-73
2023/08/05 12:45:55;;;;;;;8.00;2.80;;;;;;;;;;5048560;28;20029;-73
2023/08/05 12:48:22;;;;;;;6.67;3.60;;;;;;;;;;5049435;28;20457;-74
2023/08/05 12:50:51;;;;;;;7.00;4.38;;;;;;;;;;5050257;28;20613;-73
2023/08/05 12:53:16;;;;;;;8.05;3.90;;;;;;;;;;5050628;28;20032;-73
2023/08/05 12:55:41;;;;;;;9.20;3.87;;;;;;;;;;5048412;28;20074;-73
2023/08/05 12:58:06;;;;;;;7.47;4.27;;;;;;;;;;5049679;28;20385;-73
2023/08/05 13:00:31;;;;;;;7.20;4.30;;;;;;;;;;5032649;28;20259;-73
2023/08/05 13:02:56;;;;;;;8.70;4.43;;;;;;;;;;5050710;28;20039;-73
2023/08/05 13:05:22;;;;;;;4.45;2.80;;;;;;;;;;5049168;28;20150;-73
2023/08/05 13:07:47;;;;;;;6.25;3.75;;;;;;;;;;5046418;28;20131;-72
2023/08/05 13:10:12;;;;;;;8.85;4.25;;;;;;;;;;5049775;28;20017;-72
2023/08/05 13:12:37;;;;;;;9.60;4.87;;;;;;;;;;5047024;28;20028;-73
2023/08/05 13:15:03;;;;;;;4.03;2.20;;;;;;;;;;5050227;28;20568;-73
2023/08/05 13:17:28;;;;;;;9.18;4.57;;;;;;;;;;5047541;28;20272;-72
2023/08/05 13:19:53;;;;;;;6.60;3.57;;;;;;;;;;5049883;28;20478;-72
2023/08/05 13:22:18;;;;;;;8.90;3.80;;;;;;;;;;5048017;28;20024;-72
2023/08/05 13:24:44;;;;;;;6.83;3.20;;;;;;;;;;5047733;28;20315;-71
2023/08/05 13:27:09;;;;;;;6.75;3.47;;;;;;;;;;5045818;28;20029;-72
2023/08/05 13:29:34;;;;;;;10.20;3.72;;;;;;;;;;5048929;28;20013;-72
2023/08/05 13:32:00;;;;;;;6.73;3.43;;;;;;;;;;5050198;28;20033;-72
2023/08/05 13:34:25;;;;;;;7.82;3.90;;;;;;;;;;5049787;28;20576;-72
2023/08/05 13:36:50;;;;;;;8.60;5.00;;;;;;;;;;5046279;28;20021;-72
2023/08/05 13:39:16;;;;;;;7.47;4.10;;;;;;;;;;5045380;28;21853;-72
2023/08/05 13:41:41;;;;;;;7.78;4.53;;;;;;;;;;5049770;28;20251;-72
2023/08/05 13:44:06;;;;;;;5.87;4.30;;;;;;;;;;5047127;28;20401;-71
2023/08/05 13:46:31;;;;;;;7.20;4.00;;;;;;;;;;5041674;28;20420;-72
2023/08/05 13:48:56;;;;;;;5.77;4.10;;;;;;;;;;5042375;28;20053;-71
2023/08/05 13:51:21;;;;;;;6.87;3.50;;;;;;;;;;5047169;28;20059;-72
2023/08/05 13:53:47;;;;;;;12.87;3.90;;;;;;;;;;5048819;28;20280;-72
2023/08/05 13:56:12;;;;;;;10.00;3.10;;;;;;;;;;5046323;28;20025;-72
2023/08/05 13:58:37;;;;;;;5.35;3.35;;;;;;;;;;5042583;28;20029;-72
2023/08/05 14:01:02;;;;;;;8.87;3.53;;;;;;;;;;5042948;28;20054;-72
2023/08/05 14:03:28;;;;;;;6.00;3.50;;;;;;;;;;5047079;28;20271;-72
2023/08/05 14:05:57;;;;;;;9.95;3.88;;;;;;;;;;5044769;28;20029;-71
2023/08/05 14:08:22;;;;;;;13.60;4.10;;;;;;;;;;5048691;28;20049;-72
2023/08/05 14:10:51;;;;;;;9.65;4.57;;;;;;;;;;5045954;28;20118;-72
2023/08/05 14:13:16;;;;;;;12.98;3.88;;;;;;;;;;5050290;28;20032;-72
2023/08/05 14:15:42;;;;;;;7.32;3.33;;;;;;;;;;5049703;28;20017;-72
2023/08/05 14:18:07;;;;;;;8.93;3.97;;;;;;;;;;5046949;28;20074;-73
2023/08/05 14:20:32;;;;;;;7.17;3.17;;;;;;;;;;5045848;28;20371;-72
2023/08/05 14:22:57;;;;;;;5.90;3.53;;;;;;;;;;5045921;28;20039;-73
2023/08/05 14:25:22;;;;;;;5.53;2.60;;;;;;;;;;5047107;28;20044;-73
2023/08/05 14:27:48;;;;;;;7.00;4.03;;;;;;;;;;5048510;28;20110;-71